Flight Track Log - Related Links

Times and Time Zones

All times are in EDT time to prevent confusion due to time zone crossing. See the DAL268 flight status page for this flight to view local times or setup timezone preferences in your user account.

Time Position Orientation Groundspeed Altitude Reporting Facility
EDT Latitude Longitude Course Direction KTS MPH feet Rate Location/Type
Sat 19:48:45 33.6333 -84.4667 64° Northeast 175 201 2,200  Level Atlanta TRACON
Sat 19:49:45 33.6167 -84.5333 253° West 253 291 3,600 2,158 Climbing Atlanta TRACON
Sat 19:50:39 33.5667 -84.5833 220° Southwest 283 326 6,300 2,246 Climbing Atlanta TRACON
Sat 19:51:00 33.7145 -84.0199 101° East  Level FlightAware
Sat 19:52:00 33.6922 -83.8859 101° East  Level FlightAware
Sat 19:52:44 33.4533 -84.4894 145° Southeast 270 311 10,300  Level Atlanta Center
Sat 19:53:00 33.6698 -83.7519 101° East  Level FlightAware
Sat 19:53:44 33.4578 -84.3600 88° East 338 389 11,600  Level Atlanta Center
Sat 19:54:00 33.6558 -83.6192 64° Northeast  Level FlightAware
Sat 19:54:44 33.4811 -84.2256 78° East 390 449 14,100  Level Atlanta Center
Sat 19:55:44 33.5311 -84.1036 64° Northeast 397 457 16,700 2,100 Climbing Atlanta Center
Sat 19:56:44 33.5833 -83.9739 64° Northeast 418 481 18,300 1,550 Climbing Atlanta Center
Sat 19:57:44 33.6228 -83.8317 72° East 437 503 19,800 1,550 Climbing Atlanta Center
Sat 19:58:44 33.6517 -83.6794 77° East 449 517 21,400 1,700 Climbing Atlanta Center
Sat 19:59:44 33.7033 -83.5319 67° East 463 533 23,200 2,200 Climbing Atlanta Center
Sat 20:00:44 33.7633 -83.3892 63° Northeast 468 539 25,800 1,900 Climbing Atlanta Center
Sat 20:01:44 33.8167 -83.2536 65° Northeast 451 519 27,000 700 Climbing Atlanta Center
Sat 20:02:44 33.8742 -83.1156 63° Northeast 451 519 27,200 650 Climbing Atlanta Center
Sat 20:03:44 33.9336 -82.9622 65° Northeast 446 513 28,300 900 Climbing Atlanta Center
Sat 20:04:44 33.9886 -82.8236 64° Northeast 459 528 29,000 350 Climbing Atlanta Center
Sat 20:05:44 34.0475 -82.6775 64° Northeast 465 535 29,000  Level Atlanta Center
Sat 20:06:44 34.1044 -82.5336 64° Northeast 470 541 29,000  Level Atlanta Center
Sat 20:07:44 34.1547 -82.4019 65° Northeast 465 535 29,000  Level Atlanta Center
Sat 20:08:44 34.2133 -82.2553 64° Northeast 471 542 29,000  Level Atlanta Center
Sat 20:09:44 34.2717 -82.1108 64° Northeast 471 542 29,000  Level Atlanta Center
Sat 20:10:44 34.3406 -81.9758 58° Northeast 471 542 29,000  Level Atlanta Center
Sat 20:11:44 34.4111 -81.8331 59° Northeast 477 549 29,000  Level Atlanta Center
Sat 20:12:44 34.4794 -81.6953 59° Northeast 477 549 29,000  Level Atlanta Center
Sat 20:13:44 34.5497 -81.5547 59° Northeast 477 549 29,000  Level Atlanta Center
Sat 20:14:44 34.6178 -81.4164 59° Northeast 477 549 29,000  Level Atlanta Center
Sat 20:15:44 34.6917 -81.2675 59° Northeast 471 542 29,000  Level Atlanta Center
Sat 20:16:44 34.7594 -81.1286 59° Northeast 471 542 29,000  Level Atlanta Center
Sat 20:17:44 34.8272 -80.9922 59° Northeast 478 550 29,000  Level Atlanta Center
Sat 20:18:44 34.8922 -80.8506 61° Northeast 478 550 29,000  Level Atlanta Center
Sat 20:19:44 34.9597 -80.7136 59° Northeast 478 550 29,000  Level Atlanta Center
Sat 20:20:44 35.0267 -80.5742 60° Northeast 478 550 29,000  Level Atlanta Center
Sat 20:22:20 35.1350 -80.3489 59° Northeast 477 549 29,000  Level Washington Center
Sat 20:23:21 35.2011 -80.2056 61° Northeast 477 549 29,000  Level Washington Center
Sat 20:24:19 35.2714 -80.0619 59° Northeast 477 549 29,000  Level Washington Center
Sat 20:25:19 35.3389 -79.9231 59° Northeast 477 549 29,000  Level Washington Center
Sat 20:26:19 35.4067 -79.7789 60° Northeast 477 549 29,000  Level Washington Center
Sat 20:27:20 35.4683 -79.6292 63° Northeast 472 543 29,000  Level Washington Center
Sat 20:28:19 35.5133 -79.4681 71° East 487 560 29,000  Level Washington Center
Sat 20:29:20 35.5581 -79.3044 71° East 501 577 29,000  Level Washington Center
Sat 20:30:18 35.6028 -79.1403 71° East 496 571 29,000  Level Washington Center
Sat 20:31:19 35.6469 -78.9786 71° East 496 571 29,000  Level Washington Center
Sat 20:32:20 35.6911 -78.8144 72° East 496 571 29,000  Level Washington Center
Sat 20:33:18 35.7353 -78.6497 72° East 501 577 29,000  Level Washington Center
Sat 20:34:21 35.7789 -78.4825 72° East 501 577 29,000  Level Washington Center
Sat 20:35:19 35.8181 -78.3353 72° East 496 571 29,000  Level Washington Center
Sat 20:36:20 35.8592 -78.1753 72° East 496 571 29,000  Level Washington Center
Sat 20:37:21 35.9000 -78.0100 73° East 496 571 29,000  Level Washington Center
Sat 20:38:21 35.9408 -77.8472 73° East 496 571 29,000  Level Washington Center
Sat 20:39:18 35.9897 -77.6867 69° East 496 571 29,000  Level Washington Center
Sat 20:40:19 36.0689 -77.5578 53° Northeast 469 540 29,000  Level Washington Center
Sat 20:41:20 36.1461 -77.4311 53° Northeast 469 540 29,000  Level Washington Center
Sat 20:42:20 36.2419 -77.3097 46° Northeast 451 519 29,000  Level Washington Center
Sat 20:43:21 36.3392 -77.2139 38° Northeast 439 505 29,000  Level Washington Center
Sat 20:44:19 36.4364 -77.1178 38° Northeast 439 505 29,000  Level Washington Center
Sat 20:45:20 36.5294 -77.0214 40° Northeast 439 505 29,000  Level Washington Center
Sat 20:46:21 36.6286 -76.9222 39° Northeast 439 505 29,000  Level Washington Center
Sat 20:47:19 36.7256 -76.8281 38° Northeast 439 505 29,000  Level Washington Center
Sat 20:48:20 36.8225 -76.7308 39° Northeast 444 511 29,000  Level Washington Center
Sat 20:49:19 36.9192 -76.6336 39° Northeast 444 511 29,000  Level Washington Center
Sat 20:50:19 37.0161 -76.5361 39° Northeast 444 511 29,000  Level Washington Center
Sat 20:51:21 37.1128 -76.4358 40° Northeast 444 511 29,000  Level Washington Center
Sat 20:52:21 37.2008 -76.3453 39° Northeast 449 517 29,000  Level Washington Center
Sat 20:53:19 37.2953 -76.2472 40° Northeast 444 511 29,000  Level Washington Center
Sat 20:54:21 37.4064 -76.1436 37° Northeast 444 511 29,000  Level Washington Center
Sat 20:55:19 37.5028 -76.0447 39° Northeast 444 511 29,000 -51 Level Washington Center
Sat 20:56:19 37.5969 -75.9483 39° Northeast 444 511 28,900  Descending Washington Center
Sat 20:57:18 37.6869 -75.8569 39° Northeast 433 498 29,000 50 Climbing Washington Center
Sat 20:58:19 37.7747 -75.7625 40° Northeast 423 487 29,000  Level Washington Center
Sat 20:59:21 37.8625 -75.6706 40° Northeast 418 481 29,000  Level Washington Center
Sat 21:00:21 37.9500 -75.5786 40° Northeast 412 474 29,000  Level Washington Center
Sat 21:01:19 38.0397 -75.4889 38° Northeast 407 468 29,000  Level Washington Center
Sat 21:02:19 38.1292 -75.4175 32° Northeast 388 447 29,000  Level Washington Center
Sat 21:03:20 38.2231 -75.3592 26° Northeast 371 427 29,000  Level Washington Center
Sat 21:04:21 38.2978 -75.3114 27° Northeast 371 427 29,000  Level Washington Center
Sat 21:05:18 38.4042 -75.2447 26° Northeast 366 421 29,000  Level Washington Center
Sat 21:06:19 38.4997 -75.1858 26° Northeast 371 427 29,000  Level Washington Center
Sat 21:07:19 38.6100 -75.1189 25° Northeast 385 443 29,000  Level Washington Center
Sat 21:08:19 38.7078 -75.0542 27° Northeast 385 443 29,000  Level Washington Center
Sat 21:09:20 38.8053 -74.9922 26° Northeast 385 443 29,000  Level Washington Center
Sat 21:10:20 38.9031 -74.9300 26° Northeast 385 443 29,000  Level Washington Center
Sat 21:11:21 39.0028 -74.8678 26° Northeast 385 443 29,000 -50 Level Washington Center
Sat 21:12:21 39.1003 -74.8000 28° Northeast 385 443 28,900 -1,475 Descending Washington Center
Sat 21:13:19 39.1892 -74.7106 38° Northeast 397 457 26,100 -2,218 Descending Washington Center
Sat 21:15:06 39.3317 -74.5528 41° Northeast 423 487 22,800 -1,893 Descending New Center
Sat 21:16:07 39.4117 -74.4628 41° Northeast 397 457 20,800 -2,182 Descending New Center
Sat 21:17:07 39.4958 -74.3678 41° Northeast 373 429 18,400 -1,388 Descending New Center
Sat 21:18:08 39.5714 -74.2853 40° Northeast 362 417 18,000 -202 Descending New Center
Sat 21:19:06 39.6403 -74.2106 40° Northeast 362 417 18,000 -923 Level New Center
Sat 21:20:05 39.7244 -74.1150 41° Northeast 356 410 16,200 -1,850 Descending New Center
Sat 21:21:06 39.7975 -74.0375 39° Northeast 350 403 14,300 -1,918 Descending New Center
Sat 21:22:07 39.8725 -73.9653 36° Northeast 345 397 12,300 -1,623 Descending New Center
Sat 21:23:08 39.9425 -73.9169 28° Northeast 322 371 11,000 -661 Descending New Center
Sat 21:24:05 40.0189 -73.8633 28° Northeast 312 359 11,000 -410 Level New Center
Sat 21:25:05 40.0961 -73.8642 360° North 263 303 10,200 -1,107 Descending New Center
Sat 21:25:48 40.1500 -73.8667 358° North 247 284 9,100 -1,541 Descending New TRACON
Sat 21:26:54 40.1833 -73.8000 57° Northeast 292 336 7,400 -1,700 Descending New TRACON
Sat 21:27:48 40.1500 -73.7000 114° Southeast 311 358 5,700 -1,737 Descending New TRACON
Sat 21:28:48 40.2000 -73.6500 37° Northeast 243 280 4,100 -1,421 Descending New TRACON
Sat 21:29:42 40.2500 -73.6167 27° Northeast 242 278 3,000 -857 Descending New TRACON
Sat 21:30:05 40.2778 -73.5950 31° Northeast 220 253 3,000  Level New Center
Sat 21:31:07 40.3331 -73.5592 26° Northeast 232 267 3,000 49 Level New Center
Sat 21:32:07 40.3981 -73.5344 16° North 231 266 3,100  Climbing New Center
Sat 21:32:36 40.4333 -73.5333 North 200 230 3,000  Descending New TRACON
Sat 21:33:42 40.4833 -73.5333 360° North 169 194 3,100 45 Climbing New TRACON
Sat 21:34:48 40.5333 -73.5500 346° North 150 173 3,100 -48 Level New TRACON
Sat 21:35:48 40.5667 -73.5833 323° Northwest 141 162 3,000 -100 Descending New TRACON

Login

Don't have an account? Register now (free) for customized features, flight alerts, and more!